Time;durP1;ratioP1;P1;durP2;ratioP2;P2;SDS_P1;SDS_P2;PMS_P1;PMS_P2;Temp;Humidity;BMP_temperature;BMP_pressure;BME280_temperature;BME280_humidity;BME280_pressure;Samples;Min_cycle;Max_cycle;Signal;HPM_P1;HPM_P2
2022/03/25 00:00:24;;;;;;;2.70;1.50;;;23.40;39.10;;;;;;4999971;28;20102;-67
2022/03/25 00:02:50;;;;;;;2.40;1.50;;;23.50;39.20;;;;;;4999693;28;20045;-62
2022/03/25 00:05:16;;;;;;;3.05;1.58;;;23.40;39.10;;;;;;5004723;28;20360;-62
2022/03/25 00:07:41;;;;;;;2.00;1.40;;;23.40;39.10;;;;;;5006430;28;20084;-61
2022/03/25 00:10:08;;;;;;;2.90;1.60;;;23.40;39.10;;;;;;5002291;28;20088;-64
2022/03/25 00:12:33;;;;;;;2.50;1.55;;;23.40;39.10;;;;;;5006256;28;20033;-67
2022/03/25 00:14:59;;;;;;;2.55;1.58;;;23.40;39.20;;;;;;5003680;28;20064;-66
2022/03/25 00:17:25;;;;;;;2.22;1.50;;;23.40;39.20;;;;;;5001879;28;20131;-66
2022/03/25 00:19:51;;;;;;;4.07;2.10;;;23.30;39.20;;;;;;5004890;28;20498;-63
2022/03/25 00:22:17;;;;;;;2.55;1.55;;;23.30;39.20;;;;;;5003696;28;20026;-64
2022/03/25 00:24:43;;;;;;;2.22;1.40;;;23.30;39.20;;;;;;5003580;28;20022;-64
2022/03/25 00:27:09;;;;;;;2.65;1.63;;;23.30;39.30;;;;;;5020736;28;20120;-63
2022/03/25 00:29:35;;;;;;;2.28;1.40;;;23.30;39.20;;;;;;5005287;28;20088;-65
2022/03/25 00:32:02;;;;;;;2.38;1.50;;;23.30;39.20;;;;;;4998585;28;20478;-62
2022/03/25 00:34:29;;;;;;;1.98;1.38;;;23.20;39.20;;;;;;5003354;28;20321;-63
2022/03/25 00:36:54;;;;;;;2.63;1.50;;;23.20;39.20;;;;;;5005333;28;20116;-60
2022/03/25 00:39:20;;;;;;;2.42;1.40;;;23.20;39.20;;;;;;5002806;28;20113;-66
2022/03/25 00:41:46;;;;;;;2.00;1.50;;;23.20;39.20;;;;;;5004779;28;20025;-64
2022/03/25 00:44:12;;;;;;;2.40;1.40;;;23.20;39.20;;;;;;5002519;28;20022;-64
2022/03/25 00:46:39;;;;;;;3.08;1.70;;;23.20;39.20;;;;;;5000679;28;20022;-65
2022/03/25 00:49:04;;;;;;;3.00;1.30;;;23.20;39.20;;;;;;5003086;28;20169;-61
2022/03/25 00:51:30;;;;;;;2.13;1.40;;;23.20;39.20;;;;;;5004017;28;20060;-66
2022/03/25 00:53:56;;;;;;;2.70;1.40;;;23.20;39.20;;;;;;5003323;28;20076;-64
2022/03/25 00:56:22;;;;;;;2.38;1.60;;;23.10;39.20;;;;;;5003771;28;20045;-65
2022/03/25 00:58:49;;;;;;;2.15;1.55;;;23.10;39.20;;;;;;5003692;28;20029;-64
2022/03/25 01:01:15;;;;;;;2.50;1.40;;;23.10;39.20;;;;;;4997815;28;20042;-63
2022/03/25 01:03:41;;;;;;;2.60;1.45;;;23.10;39.20;;;;;;5001431;28;20064;-64
2022/03/25 01:06:07;;;;;;;1.63;1.30;;;23.10;39.20;;;;;;5003683;28;20026;-63
2022/03/25 01:08:32;;;;;;;2.20;1.30;;;23.10;39.20;;;;;;5004259;28;20034;-60
2022/03/25 01:10:58;;;;;;;2.08;1.40;;;23.10;39.30;;;;;;5000642;28;21949;-60
2022/03/25 01:13:24;;;;;;;2.25;1.45;;;23.10;39.20;;;;;;5005703;28;20113;-63
2022/03/25 01:15:49;;;;;;;2.03;1.33;;;23.10;39.20;;;;;;5000603;28;20394;-66
2022/03/25 01:18:15;;;;;;;2.47;1.40;;;23.10;39.20;;;;;;5004271;28;20105;-66
2022/03/25 01:20:41;;;;;;;2.22;1.30;;;23.10;39.20;;;;;;5002469;28;20419;-62
2022/03/25 01:23:08;;;;;;;2.38;1.30;;;23.10;39.20;;;;;;5001805;28;20110;-66
2022/03/25 01:25:34;;;;;;;2.25;1.40;;;23.10;39.70;;;;;;5003593;28;20124;-67
2022/03/25 01:27:59;;;;;;;2.22;1.38;;;23.10;39.20;;;;;;5002479;28;20493;-65
2022/03/25 01:30:25;;;;;;;2.00;1.30;;;23.00;39.20;;;;;;5003050;28;20152;-60
2022/03/25 01:32:50;;;;;;;2.08;1.35;;;23.00;39.20;;;;;;4998795;28;20088;-64
2022/03/25 01:35:16;;;;;;;2.28;1.42;;;23.00;39.20;;;;;;5003958;28;20566;-66
2022/03/25 01:37:42;;;;;;;2.60;1.77;;;23.00;39.20;;;;;;5003546;28;20034;-64
2022/03/25 01:40:09;;;;;;;1.98;1.33;;;23.00;39.30;;;;;;5004023;28;20034;-64
2022/03/25 01:42:41;;;;;;;1.90;1.20;;;23.00;39.20;;;;;;4997395;28;20030;-62
2022/03/25 01:45:09;;;;;;;2.40;1.40;;;23.00;39.20;;;;;;5003018;28;20040;-64
2022/03/25 01:47:35;;;;;;;3.30;1.58;;;23.00;39.30;;;;;;5000623;28;20389;-64
2022/03/25 01:50:02;;;;;;;2.10;1.27;;;22.90;39.20;;;;;;5004945;28;20413;-64
2022/03/25 01:52:29;;;;;;;1.98;1.20;;;22.90;39.20;;;;;;5001716;28;20136;-66
2022/03/25 01:54:54;;;;;;;1.92;1.20;;;22.90;39.20;;;;;;5002333;28;20228;-64
2022/03/25 01:57:25;;;;;;;1.85;1.38;;;22.90;39.20;;;;;;5003125;28;20113;-67
2022/03/25 01:59:54;;;;;;;3.35;1.52;;;22.90;39.20;;;;;;5001076;28;20392;-64
2022/03/25 02:02:20;;;;;;;2.25;1.40;;;22.90;39.20;;;;;;4995630;28;20030;-64
2022/03/25 02:04:46;;;;;;;2.80;1.50;;;22.90;39.20;;;;;;5017004;28;20021;-65
2022/03/25 02:07:11;;;;;;;1.90;1.40;;;22.90;39.20;;;;;;5002124;28;20033;-64
2022/03/25 02:09:37;;;;;;;1.65;1.10;;;22.90;39.20;;;;;;5000892;28;20407;-65
2022/03/25 02:12:04;;;;;;;2.00;1.33;;;22.90;39.20;;;;;;5001157;28;20153;-66
2022/03/25 02:14:30;;;;;;;2.30;1.38;;;22.90;39.20;;;;;;5002530;28;20077;-64
2022/03/25 02:16:55;;;;;;;1.85;1.27;;;22.80;39.20;;;;;;4999140;28;20060;-63
2022/03/25 02:19:25;;;;;;;1.95;1.30;;;22.80;39.20;;;;;;5002668;28;20034;-64
2022/03/25 02:21:51;;;;;;;2.10;1.40;;;22.80;39.20;;;;;;4997963;28;20176;-64
2022/03/25 02:24:16;;;;;;;1.92;1.35;;;22.80;39.20;;;;;;4999404;28;20453;-65
2022/03/25 02:26:43;;;;;;;1.85;1.40;;;22.80;39.20;;;;;;5000945;28;20030;-63
2022/03/25 02:29:11;;;;;;;2.58;1.60;;;22.90;39.80;;;;;;5004912;28;20573;-63
2022/03/25 02:31:37;;;;;;;1.80;1.35;;;22.80;39.20;;;;;;4995808;28;20042;-64
2022/03/25 02:34:06;;;;;;;2.10;1.25;;;22.80;39.20;;;;;;5000128;28;20034;-62
2022/03/25 02:36:39;;;;;;;2.40;1.40;;;22.80;39.20;;;;;;4998964;28;20389;-60
2022/03/25 02:39:06;;;;;;;1.60;1.13;;;22.80;39.20;;;;;;5002535;28;20030;-62
2022/03/25 02:41:32;;;;;;;2.10;1.30;;;22.80;39.20;;;;;;5002722;28;20069;-64
2022/03/25 02:43:59;;;;;;;1.75;1.25;;;22.80;39.20;;;;;;4999413;28;20579;-62
2022/03/25 02:46:25;;;;;;;1.52;1.10;;;22.80;39.20;;;;;;4997252;28;20033;-66
2022/03/25 02:48:50;;;;;;;1.77;1.30;;;22.80;39.20;;;;;;5001838;28;20117;-65
2022/03/25 02:51:16;;;;;;;1.90;1.20;;;22.80;39.20;;;;;;5005961;28;20096;-66
2022/03/25 02:53:41;;;;;;;2.10;1.50;;;22.70;39.10;;;;;;5004745;28;20034;-66
2022/03/25 02:56:07;;;;;;;2.42;1.45;;;22.70;39.10;;;;;;5003824;28;20452;-62
2022/03/25 02:58:33;;;;;;;2.00;1.35;;;22.70;39.10;;;;;;5004852;28;20034;-60
2022/03/25 03:00:59;;;;;;;3.08;1.30;;;22.70;39.20;;;;;;5004398;28;20046;-63
2022/03/25 03:03:24;;;;;;;2.13;1.30;;;22.70;39.10;;;;;;4995360;28;20029;-64
2022/03/25 03:05:50;;;;;;;1.55;1.17;;;22.70;39.10;;;;;;5005756;28;20030;-61
2022/03/25 03:08:16;;;;;;;1.65;1.20;;;22.80;39.20;;;;;;5003654;28;20029;-61
2022/03/25 03:10:43;;;;;;;1.75;1.25;;;22.70;39.10;;;;;;5003199;28;20026;-60
2022/03/25 03:13:09;;;;;;;2.10;1.17;;;22.70;39.10;;;;;;5004196;28;20036;-63
2022/03/25 03:15:36;;;;;;;1.70;1.13;;;22.70;39.10;;;;;;5003368;28;20114;-64
2022/03/25 03:18:02;;;;;;;1.85;1.20;;;22.60;39.10;;;;;;4995398;28;20034;-64
2022/03/25 03:20:27;;;;;;;1.83;1.20;;;22.70;39.20;;;;;;5004134;28;20474;-61
2022/03/25 03:22:55;;;;;;;1.88;1.20;;;22.60;39.10;;;;;;5004974;28;20121;-64
2022/03/25 03:25:20;;;;;;;1.85;1.27;;;22.60;39.10;;;;;;5004291;28;20822;-66
2022/03/25 03:27:46;;;;;;;2.45;1.40;;;22.70;39.20;;;;;;5002989;28;20026;-63
2022/03/25 03:30:12;;;;;;;2.25;1.50;;;22.60;39.20;;;;;;5012851;28;20037;-62
2022/03/25 03:32:38;;;;;;;1.98;1.30;;;22.60;39.20;;;;;;5005433;28;20159;-64
2022/03/25 03:35:05;;;;;;;1.50;1.20;;;22.60;39.20;;;;;;5004577;28;20100;-62
2022/03/25 03:37:30;;;;;;;1.90;1.20;;;22.60;39.20;;;;;;5004524;28;20082;-64
2022/03/25 03:39:56;;;;;;;1.48;1.15;;;22.60;39.20;;;;;;5002445;28;20120;-64
2022/03/25 03:42:22;;;;;;;1.85;1.30;;;22.60;39.20;;;;;;5002606;28;20394;-66
2022/03/25 03:44:47;;;;;;;2.25;1.15;;;22.60;39.20;;;;;;5000820;28;20438;-61
2022/03/25 03:47:14;;;;;;;1.63;1.15;;;22.60;39.20;;;;;;4999946;28;20456;-61
2022/03/25 03:49:40;;;;;;;1.70;1.20;;;22.60;39.20;;;;;;5010740;28;20118;-64
2022/03/25 03:52:08;;;;;;;1.80;1.38;;;22.60;39.20;;;;;;5003560;28;20109;-63
2022/03/25 03:54:36;;;;;;;1.42;1.15;;;22.50;39.20;;;;;;5005533;28;20518;-66
2022/03/25 03:57:02;;;;;;;2.17;1.25;;;22.60;39.20;;;;;;5003432;28;20092;-63
2022/03/25 03:59:27;;;;;;;1.75;1.33;;;22.50;39.20;;;;;;5001375;28;20061;-64
2022/03/25 04:01:53;;;;;;;1.77;1.30;;;22.50;39.20;;;;;;4999124;28;20038;-64
2022/03/25 04:04:18;;;;;;;1.75;1.23;;;22.50;39.20;;;;;;5001513;28;20030;-64
2022/03/25 04:06:44;;;;;;;1.70;1.20;;;22.50;39.30;;;;;;5003418;28;20041;-64
2022/03/25 04:09:10;;;;;;;1.90;1.20;;;22.50;39.20;;;;;;5002014;28;20482;-62
2022/03/25 04:11:36;;;;;;;1.63;1.15;;;22.50;39.20;;;;;;5004372;28;20083;-66
2022/03/25 04:14:02;;;;;;;1.75;1.25;;;22.40;39.20;;;;;;5004751;28;20026;-64
2022/03/25 04:16:30;;;;;;;1.27;1.13;;;22.50;39.30;;;;;;5000713;28;20034;-66
2022/03/25 04:18:57;;;;;;;2.57;1.23;;;22.40;39.20;;;;;;5003042;28;20701;-66
2022/03/25 04:21:23;;;;;;;1.40;1.10;;;22.40;39.30;;;;;;5005579;28;20033;-65
2022/03/25 04:23:49;;;;;;;1.80;1.30;;;22.40;39.30;;;;;;5003950;28;20160;-64
2022/03/25 04:26:15;;;;;;;1.50;1.20;;;22.40;39.30;;;;;;5002841;28;20033;-64
2022/03/25 04:28:40;;;;;;;1.60;1.13;;;22.40;39.30;;;;;;5005232;28;20037;-62
2022/03/25 04:31:06;;;;;;;1.63;1.10;;;22.40;39.30;;;;;;4997673;28;20328;-64
2022/03/25 04:33:34;;;;;;;1.45;1.05;;;22.40;39.30;;;;;;4994788;28;20393;-64
2022/03/25 04:36:01;;;;;;;1.77;1.17;;;22.40;39.30;;;;;;4991220;28;20118;-64
2022/03/25 04:38:27;;;;;;;1.63;1.15;;;22.40;39.40;;;;;;5002447;28;20049;-66
2022/03/25 04:40:53;;;;;;;1.38;1.08;;;22.40;39.30;;;;;;5003107;28;20099;-61
2022/03/25 04:43:18;;;;;;;1.80;1.20;;;22.40;39.30;;;;;;4999784;28;20537;-63
2022/03/25 04:45:44;;;;;;;1.50;1.10;;;22.30;39.40;;;;;;5004816;28;20030;-64
2022/03/25 04:48:11;;;;;;;1.88;1.30;;;22.40;39.50;;;;;;5001927;28;20038;-65
2022/03/25 04:50:37;;;;;;;1.60;1.20;;;22.40;39.50;;;;;;4997674;28;20018;-65
2022/03/25 04:53:03;;;;;;;1.75;1.20;;;22.30;39.40;;;;;;4999864;28;20072;-62
2022/03/25 04:55:29;;;;;;;2.28;1.50;;;22.40;39.50;;;;;;5003676;28;20668;-64
2022/03/25 04:57:55;;;;;;;2.20;1.40;;;22.40;39.50;;;;;;4997446;28;20029;-62
2022/03/25 05:00:20;;;;;;;2.13;1.33;;;22.30;39.40;;;;;;4997652;28;20493;-62
2022/03/25 05:02:46;;;;;;;2.17;1.50;;;22.30;39.40;;;;;;5002175;28;20018;-63
2022/03/25 05:05:13;;;;;;;2.33;1.42;;;22.30;39.30;;;;;;5001364;28;20044;-64
2022/03/25 05:07:46;;;;;;;2.10;1.40;;;22.30;39.90;;;;;;5000281;28;20018;-60
2022/03/25 05:10:13;;;;;;;2.70;1.45;;;22.30;39.30;;;;;;5001794;28;20025;-61
2022/03/25 05:12:43;;;;;;;2.10;1.55;;;22.30;39.30;;;;;;5001541;28;20034;-59
2022/03/25 05:15:10;;;;;;;2.58;1.60;;;22.30;39.20;;;;;;4998505;28;20069;-63
2022/03/25 05:17:48;;;;;;;2.70;1.75;;;22.30;39.20;;;;;;5001054;28;20113;-66
2022/03/25 05:20:15;;;;;;;3.38;1.73;;;22.30;39.20;;;;;;5003170;28;20037;-65
2022/03/25 05:22:41;;;;;;;2.42;1.60;;;22.30;39.20;;;;;;5003262;28;20029;-61
2022/03/25 05:25:08;;;;;;;2.42;1.60;;;22.30;39.20;;;;;;5000488;28;20701;-63
2022/03/25 05:27:43;;;;;;;2.90;1.70;;;22.30;39.20;;;;;;5002384;28;20422;-62
2022/03/25 05:30:10;;;;;;;2.88;1.75;;;22.30;39.20;;;;;;5000514;28;21486;-64
2022/03/25 05:32:38;;;;;;;2.60;1.75;;;22.30;39.30;;;;;;4999048;28;20387;-62
2022/03/25 05:35:06;;;;;;;3.13;1.80;;;22.30;39.30;;;;;;5001610;28;20544;-64
2022/03/25 05:37:31;;;;;;;2.97;1.70;;;22.30;39.30;;;;;;5003731;28;20026;-62
2022/03/25 05:39:57;;;;;;;2.75;1.70;;;22.30;39.80;;;;;;5002561;28;20061;-64
2022/03/25 05:42:23;;;;;;;2.60;1.60;;;22.30;39.30;;;;;;5001794;28;20034;-66
2022/03/25 05:44:48;;;;;;;2.58;1.55;;;22.20;39.20;;;;;;4999778;28;20836;-63
2022/03/25 05:47:14;;;;;;;2.95;1.65;;;22.30;39.30;;;;;;4997355;28;20343;-63
2022/03/25 05:49:39;;;;;;;2.60;1.77;;;22.20;39.20;;;;;;5000966;28;20038;-60
2022/03/25 05:52:05;;;;;;;2.72;1.70;;;22.30;39.30;;;;;;4999294;28;20050;-61
2022/03/25 05:54:31;;;;;;;2.28;1.45;;;22.30;39.30;;;;;;4998475;28;20478;-62
2022/03/25 05:56:57;;;;;;;2.40;1.60;;;22.20;39.20;;;;;;4996741;28;20030;-66
2022/03/25 05:59:22;;;;;;;3.15;1.85;;;22.30;39.30;;;;;;5001325;28;20478;-64
2022/03/25 06:01:48;;;;;;;4.00;1.83;;;22.20;39.30;;;;;;4995719;28;20159;-61
2022/03/25 06:04:13;;;;;;;2.90;1.80;;;22.20;39.20;;;;;;4995516;28;20061;-64
2022/03/25 06:06:39;;;;;;;2.67;1.75;;;22.20;39.20;;;;;;4995088;28;20425;-66
2022/03/25 06:09:05;;;;;;;2.75;1.77;;;22.20;39.30;;;;;;5002671;28;20046;-61
2022/03/25 06:11:31;;;;;;;2.97;1.65;;;22.20;39.20;;;;;;5009363;28;20398;-61
2022/03/25 06:13:56;;;;;;;2.85;1.75;;;22.20;39.20;;;;;;5004034;28;20040;-62
2022/03/25 06:16:22;;;;;;;2.67;1.80;;;22.20;39.20;;;;;;4997639;28;20121;-64
2022/03/25 06:18:48;;;;;;;2.97;1.80;;;22.20;39.20;;;;;;4994863;28;20066;-61
2022/03/25 06:21:14;;;;;;;2.72;1.90;;;22.20;39.20;;;;;;5001986;28;20030;-66
2022/03/25 06:23:39;;;;;;;2.75;1.52;;;22.20;39.20;;;;;;5004712;28;20236;-64
2022/03/25 06:26:05;;;;;;;4.15;2.00;;;22.20;39.20;;;;;;5002136;28;20030;-64
2022/03/25 06:28:31;;;;;;;2.40;1.63;;;22.20;39.20;;;;;;5007605;28;20030;-65
2022/03/25 06:30:56;;;;;;;2.65;1.70;;;22.30;39.20;;;;;;5005805;28;20381;-64
2022/03/25 06:33:22;;;;;;;2.70;1.70;;;22.30;39.40;;;;;;5007164;28;20069;-67
2022/03/25 06:35:48;;;;;;;2.67;1.38;;;22.30;39.50;;;;;;5009154;28;20037;-67
2022/03/25 06:38:14;;;;;;;3.10;1.70;;;22.30;39.50;;;;;;5010798;28;20033;-61
2022/03/25 06:40:40;;;;;;;2.95;1.73;;;22.30;39.50;;;;;;5008930;28;20041;-64
2022/03/25 06:43:06;;;;;;;2.45;1.60;;;22.30;39.50;;;;;;5010506;28;20095;-61
2022/03/25 06:45:31;;;;;;;2.40;1.70;;;22.40;39.50;;;;;;5007384;28;20096;-61
2022/03/25 06:47:58;;;;;;;3.08;1.70;;;22.40;39.50;;;;;;5007144;28;20038;-60
2022/03/25 06:50:24;;;;;;;2.85;1.90;;;22.40;39.40;;;;;;5008342;28;20497;-61
2022/03/25 06:52:51;;;;;;;3.33;1.75;;;22.40;39.40;;;;;;5009563;28;20084;-60
2022/03/25 06:55:17;;;;;;;2.63;1.80;;;22.50;39.40;;;;;;5006501;28;20483;-64
2022/03/25 06:57:43;;;;;;;2.90;1.80;;;22.50;39.30;;;;;;5007558;28;20041;-62
2022/03/25 07:00:12;;;;;;;5.03;1.95;;;22.50;39.30;;;;;;5008365;28;20553;-62
2022/03/25 07:02:42;;;;;;;2.95;1.95;;;22.50;39.30;;;;;;5007971;28;20283;-61
2022/03/25 07:05:10;;;;;;;3.15;1.92;;;22.60;39.30;;;;;;5008214;28;20034;-64
2022/03/25 07:07:40;;;;;;;3.17;2.00;;;22.60;39.30;;;;;;5007544;28;20120;-64
2022/03/25 07:10:09;;;;;;;3.10;1.90;;;22.60;39.20;;;;;;5008057;28;20081;-64
2022/03/25 07:12:38;;;;;;;2.90;1.77;;;22.70;39.20;;;;;;5009244;28;20038;-60
2022/03/25 07:15:05;;;;;;;;;;;22.70;39.20;;;;;;5007151;28;20474;-64
2022/03/25 07:17:30;;;;;;;3.17;2.15;;;22.70;39.30;;;;;;5005068;28;19928;-66
2022/03/25 07:19:56;;;;;;;3.03;2.08;;;22.70;39.30;;;;;;5008952;28;20459;-67
2022/03/25 07:22:22;;;;;;;2.63;1.85;;;22.80;39.30;;;;;;5008294;28;20029;-66
2022/03/25 07:24:47;;;;;;;2.80;1.80;;;22.80;39.20;;;;;;5004860;28;20061;-64
2022/03/25 07:27:13;;;;;;;3.17;2.17;;;22.80;39.20;;;;;;5004389;28;20046;-64
2022/03/25 07:29:39;;;;;;;2.70;1.85;;;22.80;39.20;;;;;;5008915;28;20046;-63
2022/03/25 07:32:04;;;;;;;3.53;1.98;;;22.80;39.10;;;;;;5003270;28;20483;-65
2022/03/25 07:34:31;;;;;;;3.83;1.88;;;22.90;39.20;;;;;;5004244;28;20105;-60
2022/03/25 07:36:57;;;;;;;3.75;2.00;;;22.90;39.20;;;;;;5002041;28;20049;-63
2022/03/25 07:39:23;;;;;;;3.10;1.80;;;22.90;39.20;;;;;;5004755;28;20037;-64
2022/03/25 07:41:49;;;;;;;2.92;1.88;;;22.90;39.10;;;;;;4999882;28;20029;-60
2022/03/25 07:44:14;;;;;;;2.80;2.08;;;22.90;39.10;;;;;;5005009;28;20030;-67
2022/03/25 07:46:41;;;;;;;4.63;2.17;;;22.90;39.10;;;;;;4999923;28;20084;-59
2022/03/25 07:49:07;;;;;;;3.60;2.03;;;23.00;39.20;;;;;;4998787;28;20049;-66
2022/03/25 07:51:32;;;;;;;2.90;1.98;;;23.00;39.20;;;;;;5001597;28;20172;-62
2022/03/25 07:53:58;;;;;;;2.53;1.65;;;23.00;39.20;;;;;;5005782;28;20041;-60
2022/03/25 07:56:23;;;;;;;2.80;1.65;;;23.00;39.20;;;;;;5002214;28;20366;-64
2022/03/25 07:58:49;;;;;;;2.70;1.70;;;23.10;39.20;;;;;;5004510;28;20037;-60
2022/03/25 08:01:15;;;;;;;2.85;1.90;;;23.10;39.20;;;;;;5000429;28;20508;-66
2022/03/25 08:03:41;;;;;;;3.40;1.85;;;23.10;39.10;;;;;;5002791;28;20045;-61
2022/03/25 08:06:08;;;;;;;3.05;1.90;;;23.10;39.30;;;;;;5001142;28;20026;-65
2022/03/25 08:08:35;;;;;;;2.58;1.80;;;23.10;39.20;;;;;;5005155;28;20130;-61
2022/03/25 08:11:00;;;;;;;3.55;2.25;;;23.20;39.20;;;;;;5002805;28;20451;-61
2022/03/25 08:13:26;;;;;;;3.45;1.80;;;23.20;39.10;;;;;;5002809;28;20089;-62
2022/03/25 08:15:52;;;;;;;2.80;1.83;;;23.20;39.10;;;;;;5002510;28;20076;-61
2022/03/25 08:18:18;;;;;;;2.97;1.80;;;23.20;39.00;;;;;;5003691;28;20084;-66
2022/03/25 08:20:46;;;;;;;3.60;2.17;;;23.30;39.10;;;;;;5002524;28;20108;-61
2022/03/25 08:27:48;;;;;;;2.92;1.80;;;23.30;39.10;;;;;;5004348;28;20053;-63
2022/03/25 08:28:54;;;;;;;3.20;1.67;;;23.30;39.00;;;;;;5004405;28;20473;-59
2022/03/25 08:31:21;;;;;;;3.20;1.90;;;23.30;39.00;;;;;;4998924;28;20092;-66
2022/03/25 08:33:47;;;;;;;2.60;1.70;;;23.30;39.20;;;;;;4999776;28;20034;-61
2022/03/25 08:36:15;;;;;;;2.88;1.83;;;23.30;38.90;;;;;;5000813;28;20061;-61
2022/03/25 08:38:40;;;;;;;3.47;1.90;;;23.30;38.80;;;;;;5001083;28;20048;-62
2022/03/25 08:41:06;;;;;;;2.72;1.88;;;23.40;38.90;;;;;;5002763;28;20030;-66
2022/03/25 08:43:32;;;;;;;3.20;1.92;;;23.30;38.80;;;;;;5004898;28;20021;-63
2022/03/25 08:45:57;;;;;;;2.60;1.83;;;23.40;38.80;;;;;;4993817;28;20084;-62
2022/03/25 08:48:23;;;;;;;2.95;1.80;;;23.40;38.80;;;;;;5001295;28;20141;-64
2022/03/25 08:50:49;;;;;;;3.30;2.03;;;23.40;38.80;;;;;;5002710;28;20192;-63
2022/03/25 08:53:16;;;;;;;3.10;1.95;;;23.40;38.70;;;;;;5001843;28;20041;-64
2022/03/25 08:55:41;;;;;;;3.38;1.80;;;23.40;38.70;;;;;;5006390;28;20042;-64
2022/03/25 08:58:07;;;;;;;3.03;1.90;;;23.30;38.70;;;;;;4995603;28;20022;-61
2022/03/25 09:00:33;;;;;;;2.65;2.00;;;23.40;38.70;;;;;;4998090;28;20108;-64
2022/03/25 09:02:58;;;;;;;2.92;2.03;;;23.40;38.70;;;;;;4996829;28;20029;-65
2022/03/25 09:05:24;;;;;;;2.85;2.00;;;23.40;38.80;;;;;;5002145;28;20026;-66
2022/03/25 09:07:50;;;;;;;2.88;1.95;;;23.40;38.80;;;;;;5001615;28;20184;-64
2022/03/25 09:10:16;;;;;;;2.97;2.00;;;23.40;38.80;;;;;;4997283;28;21088;-62
2022/03/25 09:12:43;;;;;;;3.17;2.03;;;23.40;38.80;;;;;;5000721;28;20030;-61
2022/03/25 09:15:09;;;;;;;2.92;1.83;;;23.40;38.80;;;;;;4998540;28;20029;-63
2022/03/25 09:17:36;;;;;;;2.30;1.70;;;23.40;38.80;;;;;;4995644;28;20675;-61
2022/03/25 09:20:03;;;;;;;2.78;2.10;;;23.40;38.80;;;;;;5003820;28;20113;-63
2022/03/25 09:22:31;;;;;;;2.65;1.88;;;23.40;39.30;;;;;;5000722;28;20117;-62
2022/03/25 09:24:57;;;;;;;3.35;1.80;;;23.40;39.00;;;;;;4998291;28;20030;-64
2022/03/25 09:27:22;;;;;;;3.70;2.00;;;23.40;39.00;;;;;;4995511;28;20524;-61
2022/03/25 09:29:48;;;;;;;2.50;1.70;;;23.40;38.90;;;;;;5001394;28;20592;-64
2022/03/25 09:32:14;;;;;;;3.22;1.80;;;23.50;39.00;;;;;;4999596;28;20132;-62
2022/03/25 09:37:24;;;;;;;1.95;1.30;;;23.50;39.10;;;;;;5001622;28;20040;-60
2022/03/25 09:39:51;;;;;;;1.85;1.23;;;23.50;39.20;;;;;;5000554;28;20026;-59
2022/03/25 09:42:16;;;;;;;2.15;1.40;;;23.50;39.40;;;;;;5002075;28;20457;-62
2022/03/25 09:44:43;;;;;;;2.10;1.35;;;23.50;39.70;;;;;;4999211;28;20080;-63
2022/03/25 09:47:10;;;;;;;1.83;1.30;;;23.50;39.90;;;;;;4994690;28;20036;-62
2022/03/25 09:49:38;;;;;;;1.88;1.13;;;23.60;40.20;;;;;;5001191;28;20033;-60
2022/03/25 09:52:05;;;;;;;1.90;1.20;;;23.60;40.50;;;;;;5001291;28;20506;-62
2022/03/25 09:54:32;;;;;;;2.95;1.08;;;23.70;40.70;;;;;;4999223;28;20044;-64
2022/03/25 09:56:57;;;;;;;1.45;1.17;;;23.70;41.00;;;;;;4999773;28;20103;-61
2022/03/25 09:59:23;;;;;;;1.40;1.10;;;23.70;41.00;;;;;;4997580;28;20022;-68
2022/03/25 10:01:49;;;;;;;1.52;1.10;;;23.80;41.30;;;;;;4995572;28;20322;-60
2022/03/25 10:04:35;;;;;;;1.92;1.02;;;23.80;41.50;;;;;;4987136;28;20041;-64
2022/03/25 10:07:00;;;;;;;1.50;1.10;;;23.80;41.90;;;;;;4999815;28;20479;-67
2022/03/25 10:09:26;;;;;;;1.95;1.10;;;23.90;41.80;;;;;;4998115;28;20033;-66
2022/03/25 10:11:51;;;;;;;1.60;1.20;;;23.90;42.20;;;;;;4997806;28;20041;-62
2022/03/25 10:14:19;;;;;;;3.45;1.20;;;23.90;42.10;;;;;;4998838;28;20129;-61
2022/03/25 10:16:46;;;;;;;1.95;1.20;;;24.00;42.70;;;;;;4995916;28;20121;-62
2022/03/25 10:19:23;;;;;;;2.47;1.15;;;24.00;43.50;;;;;;5001871;28;20026;-63
2022/03/25 10:22:00;;;;;;;1.58;1.10;;;24.10;43.30;;;;;;5000121;28;20034;-67
2022/03/25 10:24:39;;;;;;;1.58;1.17;;;24.10;43.50;;;;;;5003157;28;20081;-67
2022/03/25 10:27:07;;;;;;;1.90;1.17;;;24.10;43.90;;;;;;5000162;28;20042;-67
2022/03/25 10:29:35;;;;;;;2.67;1.40;;;24.10;43.80;;;;;;5001417;28;20025;-62
2022/03/25 10:32:13;;;;;;;1.92;1.02;;;24.20;44.40;;;;;;5018699;28;20049;-67
2022/03/25 10:34:41;;;;;;;1.75;1.10;;;24.20;44.50;;;;;;5001458;28;20029;-67
2022/03/25 10:37:12;;;;;;;2.75;1.20;;;24.20;44.70;;;;;;5005421;28;20129;-61
2022/03/25 10:39:39;;;;;;;1.20;1.00;;;24.30;44.90;;;;;;5002286;28;20455;-60
2022/03/25 10:42:07;;;;;;;1.90;1.10;;;24.30;45.10;;;;;;4993694;28;20097;-62
2022/03/25 10:44:36;;;;;;;1.67;1.10;;;24.30;45.30;;;;;;4998021;28;20028;-64
2022/03/25 10:47:24;;;;;;;2.28;1.20;;;24.40;45.40;;;;;;4995694;28;20346;-64
2022/03/25 10:49:51;;;;;;;1.27;1.08;;;24.40;45.60;;;;;;5006471;28;20527;-66
2022/03/25 10:52:32;;;;;;;1.58;0.98;;;24.40;45.50;;;;;;5007307;28;20030;-64
2022/03/25 10:55:23;;;;;;;2.47;1.00;;;24.50;45.80;;;;;;5002824;28;20227;-61
2022/03/25 10:57:59;;;;;;;1.85;1.10;;;24.50;46.00;;;;;;5014375;28;20030;-67
2022/03/25 11:00:26;;;;;;;2.63;1.50;;;24.50;46.20;;;;;;4995698;28;20041;-65
2022/03/25 11:02:52;;;;;;;2.80;1.90;;;24.50;43.10;;;;;;5007848;28;20159;-63
2022/03/25 11:05:18;;;;;;;2.80;2.00;;;24.50;40.60;;;;;;5000925;28;20474;-63
2022/03/25 11:07:46;;;;;;;3.72;2.08;;;24.50;39.80;;;;;;5000034;28;20037;-64
2022/03/25 11:10:15;;;;;;;2.83;2.15;;;24.40;39.50;;;;;;4998399;28;20049;-70
2022/03/25 11:12:48;;;;;;;2.97;2.10;;;24.40;39.20;;;;;;5004256;28;20115;-64
2022/03/25 11:15:17;;;;;;;3.13;2.20;;;24.40;39.20;;;;;;5003620;28;20367;-68
2022/03/25 11:17:44;;;;;;;3.17;2.03;;;24.40;39.10;;;;;;5004079;28;20424;-62
2022/03/25 11:20:11;;;;;;;3.95;2.08;;;24.40;39.10;;;;;;5006305;28;20212;-62
2022/03/25 11:22:43;;;;;;;3.83;2.40;;;24.40;39.00;;;;;;5002898;28;20335;-64
2022/03/25 11:25:13;;;;;;;2.97;1.80;;;24.40;39.00;;;;;;5005948;28;20040;-64
2022/03/25 11:27:45;;;;;;;3.10;2.20;;;24.30;39.00;;;;;;5004425;28;20029;-61
2022/03/25 11:30:13;;;;;;;3.13;2.00;;;24.40;38.90;;;;;;4997489;28;20429;-65
2022/03/25 11:33:04;;;;;;;3.07;2.03;;;24.40;39.10;;;;;;5000344;28;20018;-67
2022/03/25 11:35:42;;;;;;;3.38;2.10;;;24.40;39.20;;;;;;5002205;28;20021;-68
2022/03/25 11:38:11;;;;;;;5.95;2.08;;;24.30;39.00;;;;;;5002422;28;20041;-62
2022/03/25 11:40:48;;;;;;;2.97;2.25;;;24.30;38.90;;;;;;5002073;28;20480;-62
2022/03/25 11:43:28;;;;;;;3.75;2.50;;;24.30;38.90;;;;;;5001918;28;20041;-67
2022/03/25 11:45:59;;;;;;;3.97;2.60;;;24.30;38.80;;;;;;4997287;28;20108;-66
2022/03/25 11:48:25;;;;;;;3.20;2.10;;;24.30;38.80;;;;;;4994884;28;21293;-60
2022/03/25 11:50:55;;;;;;;3.55;2.45;;;24.30;38.80;;;;;;5002732;28;20033;-63
2022/03/25 11:53:23;;;;;;;4.00;2.60;;;24.30;38.80;;;;;;5002437;28;20083;-67
2022/03/25 11:56:05;;;;;;;5.00;3.55;;;24.30;38.70;;;;;;5002278;28;20117;-61
2022/03/25 11:58:36;;;;;;;8.82;5.32;;;24.30;38.60;;;;;;5002071;28;20037;-64
2022/03/25 12:01:16;;;;;;;11.60;7.93;;;24.30;38.50;;;;;;4998160;28;20040;-67
2022/03/25 12:03:43;;;;;;;17.25;10.75;;;24.30;38.40;;;;;;5004461;28;20156;-67
2022/03/25 12:06:11;;;;;;;18.80;11.85;;;24.30;38.20;;;;;;4997117;28;20138;-64
2022/03/25 12:08:38;;;;;;;16.10;11.25;;;24.30;38.30;;;;;;5004720;28;20034;-65
2022/03/25 12:11:06;;;;;;;16.08;11.18;;;24.30;38.30;;;;;;5001116;28;20793;-66
2022/03/25 12:13:51;;;;;;;18.13;12.50;;;24.30;38.30;;;;;;5000935;28;20026;-64
2022/03/25 12:16:48;;;;;;;17.35;11.80;;;24.30;38.30;;;;;;4994389;28;20148;-61
2022/03/25 12:19:25;;;;;;;15.88;11.25;;;24.40;38.30;;;;;;5002221;28;20026;-63
2022/03/25 12:22:00;;;;;;;16.30;10.77;;;24.30;38.40;;;;;;5005730;28;20037;-65
2022/03/25 12:24:27;;;;;;;17.83;11.43;;;24.30;38.30;;;;;;5003490;28;20378;-61
2022/03/25 12:27:08;;;;;;;17.30;11.98;;;24.30;38.20;;;;;;4998608;28;20506;-65
2022/03/25 12:29:36;;;;;;;17.88;10.75;;;24.30;38.70;;;;;;5000917;28;20037;-64
2022/03/25 12:32:05;;;;;;;16.93;11.47;;;24.30;38.50;;;;;;4997319;28;20128;-64
2022/03/25 12:34:59;;;;;;;15.35;10.27;;;24.30;37.20;;;;;;4999816;28;20292;-62
2022/03/25 12:37:42;;;;;;;13.70;10.18;;;24.20;35.00;;;;;;4999972;28;20029;-61
2022/03/25 12:40:23;;;;;;;13.55;10.07;;;24.20;35.20;;;;;;4998970;28;20060;-65
2022/03/25 12:42:58;;;;;;;14.32;10.80;;;24.10;34.80;;;;;;5002242;28;20072;-65
2022/03/25 12:45:37;;;;;;;13.52;10.52;;;24.10;34.30;;;;;;4996701;28;20025;-62
2022/03/25 12:48:17;;;;;;;14.55;10.20;;;24.10;34.50;;;;;;4998269;28;20044;-67
2022/03/25 12:50:54;;;;;;;13.52;9.90;;;24.10;33.80;;;;;;5001380;28;20041;-61
2022/03/25 12:53:25;;;;;;;11.38;9.23;;;24.10;33.40;;;;;;5002043;28;20026;-62